Time;durP1;ratioP1;P1;durP2;ratioP2;P2;SDS_P1;SDS_P2;PMS_P1;PMS_P2;Temp;Humidity;BMP_temperature;BMP_pressure;BME280_temperature;BME280_humidity;BME280_pressure;Samples;Min_cycle;Max_cycle;Signal;HPM_P1;HPM_P2
2021/06/24 00:00:55;;;;;;;19.10;7.57;;;;;;;28.81;47.73;100165.16;3496536;28;20049;-69
2021/06/24 00:02:36;;;;;;;18.73;8.38;;;;;;;28.79;47.94;100167.41;3496121;28;20044;-69
2021/06/24 00:04:17;;;;;;;33.28;7.82;;;;;;;28.79;47.82;100172.88;3496603;28;20196;-69
2021/06/24 00:05:59;;;;;;;16.23;7.57;;;;;;;28.79;48.29;100177.56;3496461;28;20109;-68
2021/06/24 00:07:39;;;;;;;17.55;8.50;;;;;;;28.77;47.98;100172.38;3496355;28;20052;-69
2021/06/24 00:09:20;;;;;;;21.67;9.03;;;;;;;28.77;48.23;100179.78;3496291;28;20044;-68
2021/06/24 00:11:02;;;;;;;23.97;8.17;;;;;;;28.74;48.24;100170.25;3481550;28;20051;-68
2021/06/24 00:12:43;;;;;;;16.40;7.65;;;;;;;28.73;48.22;100167.78;3493721;28;20041;-72
2021/06/24 00:14:24;;;;;;;15.63;7.83;;;;;;;28.72;48.34;100160.69;3481384;28;20045;-76
2021/06/24 00:16:06;;;;;;;19.47;10.00;;;;;;;28.73;48.29;100163.13;3478760;28;20043;-75
2021/06/24 00:17:46;;;;;;;17.13;8.60;;;;;;;28.67;48.53;100148.69;3465159;28;20296;-76
2021/06/24 00:19:28;;;;;;;25.38;9.75;;;;;;;28.74;48.86;100158.47;3490729;28;20424;-75
2021/06/24 00:21:09;;;;;;;15.40;8.87;;;;;;;28.74;48.79;100158.47;3496426;28;20083;-76
2021/06/24 00:22:50;;;;;;;19.52;9.15;;;;;;;28.75;48.66;100160.06;3496424;28;20033;-76
2021/06/24 00:24:31;;;;;;;20.60;9.85;;;;;;;28.72;48.73;100147.78;3496124;28;20500;-75
2021/06/24 00:26:12;;;;;;;21.95;9.85;;;;;;;28.73;48.98;100149.41;3481283;28;20048;-76
2021/06/24 00:27:52;;;;;;;19.27;10.47;;;;;;;28.69;48.63;100146.47;3493416;28;20602;-74
2021/06/24 00:29:33;;;;;;;20.45;10.75;;;;;;;28.71;49.06;100165.38;3496209;28;20037;-76
2021/06/24 00:31:16;;;;;;;23.58;11.88;;;;;;;28.67;49.05;100147.88;3496292;28;20056;-76
2021/06/24 00:32:57;;;;;;;21.63;11.20;;;;;;;28.69;49.05;100164.84;3453963;28;20076;-75
2021/06/24 00:34:38;;;;;;;27.37;11.37;;;;;;;28.67;49.53;100162.41;3487727;28;20507;-75
2021/06/24 00:36:19;;;;;;;25.77;10.88;;;;;;;28.62;49.39;100159.75;3496171;28;20051;-76
2021/06/24 00:38:00;;;;;;;26.13;11.63;;;;;;;28.63;49.17;100164.16;3481681;28;20432;-75
2021/06/24 00:39:41;;;;;;;17.30;10.77;;;;;;;28.61;49.61;100171.06;3493482;28;20105;-76
2021/06/24 00:41:22;;;;;;;25.20;11.80;;;;;;;28.55;49.69;100161.28;3467740;28;20434;-75
2021/06/24 00:43:17;;;;;;;15.90;10.52;;;;;;;28.57;49.96;100176.31;3465486;28;20057;-74
2021/06/24 00:44:58;;;;;;;19.90;9.98;;;;;;;28.55;49.58;100173.06;3478306;28;20036;-75
2021/06/24 00:46:39;;;;;;;26.33;10.90;;;;;;;28.54;49.95;100173.38;3478877;28;20496;-74
2021/06/24 00:48:20;;;;;;;22.30;9.97;;;;;;;28.51;50.13;100176.72;3478688;28;20056;-75
2021/06/24 00:50:06;;;;;;;23.65;10.68;;;;;;;28.48;50.27;100172.66;3478892;28;20131;-75
2021/06/24 00:51:47;;;;;;;34.65;22.65;;;;;;;28.47;50.09;100176.50;3493510;28;20041;-75
2021/06/24 00:53:29;;;;;;;35.92;25.80;;;;;;;28.43;50.07;100180.94;3481285;28;20594;-76
2021/06/24 00:55:10;;;;;;;40.38;21.77;;;;;;;28.44;50.33;100185.34;3495233;28;20495;-76
2021/06/24 00:56:59;;;;;;;24.80;15.93;;;;;;;28.40;50.38;100185.09;3484127;28;21108;-76
2021/06/24 00:58:40;;;;;;;27.95;15.30;;;;;;;28.40;50.63;100190.59;3470430;28;20049;-76
2021/06/24 01:00:22;;;;;;;33.73;13.87;;;;;;;28.37;50.31;100193.94;3467956;28;20136;-77
2021/06/24 01:02:05;;;;;;;23.88;12.18;;;;;;;28.33;51.00;100192.09;3493390;28;20291;-75
2021/06/24 01:03:46;;;;;;;22.05;11.73;;;;;;;28.31;50.67;100197.88;3498724;28;20067;-75
2021/06/24 01:05:27;;;;;;;25.10;11.55;;;;;;;28.31;50.62;100192.38;3498558;28;20384;-77
2021/06/24 01:07:08;;;;;;;24.08;11.75;;;;;;;28.25;50.61;100197.13;3484036;28;20051;-76
2021/06/24 01:08:59;;;;;;;30.60;11.63;;;;;;;28.24;51.32;100195.53;3482286;28;20047;-76
2021/06/24 01:10:44;;;;;;;21.80;10.50;;;;;;;28.19;51.12;100190.13;3481316;28;20574;-76
2021/06/24 01:12:26;;;;;;;28.80;11.35;;;;;;;28.16;50.99;100187.97;3482239;28;20659;-75
2021/06/24 01:14:10;;;;;;;25.77;10.93;;;;;;;28.19;51.31;100197.50;3495535;28;20044;-75
2021/06/24 01:15:54;;;;;;;26.85;12.25;;;;;;;28.14;51.35;100192.97;3469836;28;20898;-76
2021/06/24 01:17:35;;;;;;;29.20;11.75;;;;;;;28.15;51.56;100193.75;3493262;28;20114;-74
2021/06/24 01:19:17;;;;;;;29.85;11.25;;;;;;;28.08;51.42;100194.13;3484341;28;20033;-76
2021/06/24 01:20:59;;;;;;;22.92;12.05;;;;;;;28.09;51.79;100192.19;3481200;28;20419;-75
2021/06/24 01:22:40;;;;;;;21.35;11.38;;;;;;;28.08;52.00;100199.63;3495330;28;20409;-75
2021/06/24 01:24:21;;;;;;;32.38;11.27;;;;;;;28.06;51.80;100190.88;3498541;28;20063;-73
2021/06/24 01:26:02;;;;;;;26.77;11.38;;;;;;;28.04;51.57;100195.88;3498460;28;20040;-75
2021/06/24 01:27:43;;;;;;;32.50;12.07;;;;;;;28.01;51.92;100196.44;3498950;28;20045;-75
2021/06/24 01:29:24;;;;;;;32.90;13.80;;;;;;;27.98;51.89;100197.03;3470557;28;20068;-75
2021/06/24 01:31:06;;;;;;;36.83;12.98;;;;;;;27.99;51.90;100198.69;3478431;28;20056;-75
2021/06/24 01:32:46;;;;;;;24.08;11.73;;;;;;;27.95;51.95;100192.16;3467236;28;20071;-75
2021/06/24 01:34:27;;;;;;;28.60;12.35;;;;;;;27.97;51.91;100200.91;3478197;28;20073;-75
2021/06/24 01:36:08;;;;;;;23.87;11.47;;;;;;;27.97;51.55;100206.38;3480880;28;20150;-75
2021/06/24 01:37:58;;;;;;;31.33;13.20;;;;;;;27.94;52.04;100196.03;3483580;28;20045;-76
2021/06/24 01:39:40;;;;;;;19.63;10.93;;;;;;;27.91;51.56;100193.88;3456143;28;20600;-76
2021/06/24 01:41:21;;;;;;;25.55;12.50;;;;;;;27.91;52.18;100197.44;3475907;28;20080;-75
2021/06/24 01:43:25;;;;;;;24.33;11.60;;;;;;;27.93;52.03;100199.84;3480723;28;20049;-75
2021/06/24 01:45:06;;;;;;;21.80;10.52;;;;;;;27.86;52.09;100194.78;3483173;28;20475;-76
2021/06/24 01:46:47;;;;;;;;;;;;;;;27.92;52.31;100201.78;3481022;28;20044;-76
2021/06/24 01:48:28;;;;;;;31.52;12.10;;;;;;;27.87;52.52;100195.56;3480603;28;20497;-79
2021/06/24 01:50:10;;;;;;;22.63;11.35;;;;;;;27.87;52.69;100201.06;3480607;28;20611;-76
2021/06/24 01:51:52;;;;;;;25.73;13.00;;;;;;;27.87;52.94;100199.13;3480869;28;20045;-78
2021/06/24 01:53:33;;;;;;;25.48;12.13;;;;;;;27.87;52.46;100203.78;3469728;28;20567;-77
2021/06/24 01:55:17;;;;;;;21.80;11.68;;;;;;;27.84;52.79;100202.47;3493358;28;20037;-77
2021/06/24 01:57:13;;;;;;;20.65;11.35;;;;;;;27.90;52.55;100212.22;3483378;28;20049;-76
2021/06/24 01:58:54;;;;;;;19.25;11.52;;;;;;;27.88;52.39;100197.19;3483296;28;20045;-76
2021/06/24 02:00:51;;;;;;;21.40;11.55;;;;;;;27.90;52.50;100204.00;3468856;28;20547;-77
2021/06/24 02:02:36;;;;;;;22.02;11.98;;;;;;;27.84;52.97;100197.00;3469519;28;20636;-78
2021/06/24 02:04:28;;;;;;;31.15;12.52;;;;;;;27.88;53.03;100211.72;3494112;28;20489;-75
2021/06/24 02:06:09;;;;;;;26.85;13.52;;;;;;;27.84;52.81;100197.78;3482175;28;20543;-75
2021/06/24 02:07:52;;;;;;;26.73;12.07;;;;;;;27.93;52.50;100208.06;3495218;28;20419;-76
2021/06/24 02:09:36;;;;;;;23.15;11.35;;;;;;;27.94;52.38;100204.25;3497754;28;20072;-74
2021/06/24 02:11:21;;;;;;;20.70;12.63;;;;;;;27.95;52.30;100208.59;3498151;28;20055;-76
2021/06/24 02:13:10;;;;;;;23.52;12.23;;;;;;;27.95;52.46;100209.41;3483085;28;20566;-76
2021/06/24 02:14:51;;;;;;;24.25;13.05;;;;;;;27.98;52.89;100206.06;3466815;28;20195;-76
2021/06/24 02:16:34;;;;;;;27.63;12.88;;;;;;;28.00;52.49;100209.31;3480410;28;20500;-73
2021/06/24 02:18:42;;;;;;;23.50;12.73;;;;;;;28.02;52.78;100203.56;3504571;27;1403856;-76
2021/06/24 02:20:28;;;;;;;19.73;11.45;;;;;;;28.04;52.64;100204.09;3535370;28;20544;-75
2021/06/24 02:22:16;;;;;;;22.25;11.32;;;;;;;28.03;52.28;100199.69;3533852;28;20051;-76
2021/06/24 02:24:09;;;;;;;19.42;11.18;;;;;;;28.07;52.31;100208.16;3534356;28;20039;-76
2021/06/24 02:26:00;;;;;;;18.83;11.70;;;;;;;28.08;52.58;100204.28;3535411;28;20418;-74
2021/06/24 02:27:54;;;;;;;20.73;11.73;;;;;;;28.09;52.45;100204.00;3536532;28;20491;-75
2021/06/24 02:29:50;;;;;;;23.38;12.63;;;;;;;28.12;52.34;100203.41;3535585;28;20074;-75
2021/06/24 02:31:31;;;;;;;20.65;12.10;;;;;;;28.11;52.07;100201.75;3533019;28;20039;-76
2021/06/24 02:33:19;;;;;;;29.48;12.93;;;;;;;28.16;51.93;100203.59;3519432;28;20486;-76
2021/06/24 02:35:07;;;;;;;17.65;12.45;;;;;;;28.19;51.87;100203.00;3517733;28;20617;-77
2021/06/24 02:36:57;;;;;;;29.10;13.20;;;;;;;28.21;52.04;100206.25;3519531;28;20081;-77
2021/06/24 02:38:58;;;;;;;26.65;11.05;;;;;;;28.20;52.05;100193.69;3536125;28;20464;-75
2021/06/24 02:40:39;;;;;;;28.57;11.77;;;;;;;28.23;52.40;100207.59;3535377;28;20043;-76
2021/06/24 02:42:21;;;;;;;;;;;;;;;28.28;51.69;100207.50;3532969;28;20711;-77
2021/06/24 02:44:04;;;;;;;26.25;10.95;;;;;;;28.26;51.77;100206.97;3532648;28;19920;-76
2021/06/24 02:45:45;;;;;;;23.92;11.50;;;;;;;28.27;52.28;100199.59;3532143;28;20135;-79
2021/06/24 02:47:38;;;;;;;23.38;12.32;;;;;;;28.29;52.48;100205.56;3534016;28;20043;-76
2021/06/24 02:49:19;;;;;;;;;;;;;;;28.33;52.02;100203.88;3518841;28;20044;-75
2021/06/24 02:51:07;;;;;;;32.17;13.32;;;;;;;28.33;51.92;100200.31;3531475;28;20271;-75
2021/06/24 02:52:59;;;;;;;27.73;13.55;;;;;;;28.36;51.80;100202.44;3533639;28;20510;-75
2021/06/24 02:54:42;;;;;;;35.10;14.45;;;;;;;28.37;52.33;100202.16;3532550;28;20044;-75
2021/06/24 02:56:23;;;;;;;23.50;12.95;;;;;;;28.36;52.40;100191.47;3535194;28;20126;-78
2021/06/24 02:58:06;;;;;;;28.38;13.48;;;;;;;28.40;52.08;100187.03;3506928;28;20041;-74
2021/06/24 03:00:08;;;;;;;21.55;12.48;;;;;;;28.47;52.07;100209.41;3535031;28;20062;-76
2021/06/24 03:01:52;;;;;;;27.00;13.50;;;;;;;28.43;51.91;100186.44;3532926;28;20074;-77
2021/06/24 03:03:42;;;;;;;23.33;11.63;;;;;;;28.52;52.14;100195.59;3535061;28;20039;-76
2021/06/24 03:05:36;;;;;;;22.88;12.35;;;;;;;28.56;52.19;100195.81;3535625;28;20034;-78
2021/06/24 03:07:17;;;;;;;22.98;12.43;;;;;;;28.59;51.70;100189.72;3535148;28;20047;-77
2021/06/24 03:09:19;;;;;;;30.67;13.90;;;;;;;28.58;51.80;100188.94;3535617;28;20355;-75
2021/06/24 03:10:59;;;;;;;;;;;;;;;28.67;51.67;100189.84;3535612;28;20055;-76
2021/06/24 03:12:41;;;;;;;29.02;13.55;;;;;;;28.66;51.87;100190.97;3532230;28;19911;-76
2021/06/24 03:14:22;;;;;;;45.08;13.85;;;;;;;28.67;51.75;100187.09;3532181;28;20043;-77
2021/06/24 03:16:04;;;;;;;30.38;14.20;;;;;;;28.69;52.07;100190.34;3535605;28;20039;-77
2021/06/24 03:17:47;;;;;;;34.45;14.32;;;;;;;28.74;51.47;100191.38;3534620;28;20083;-77
2021/06/24 03:19:28;;;;;;;24.38;12.85;;;;;;;28.76;51.93;100200.94;3518050;28;20048;-77
2021/06/24 03:21:19;;;;;;;24.52;13.45;;;;;;;28.79;51.61;100197.59;3532504;28;20066;-75
2021/06/24 03:23:01;;;;;;;33.78;13.75;;;;;;;28.80;51.63;100199.19;3532027;28;20058;-76
2021/06/24 03:24:42;;;;;;;31.10;14.07;;;;;;;28.81;51.58;100183.53;3532033;28;20043;-76
2021/06/24 03:26:24;;;;;;;24.25;14.10;;;;;;;28.86;51.97;100198.00;3535447;28;20085;-75
2021/06/24 03:28:16;;;;;;;30.10;14.55;;;;;;;28.88;51.85;100192.19;3534919;28;20353;-75
2021/06/24 03:30:30;;;;;;;35.15;13.63;;;;;;;28.90;51.76;100192.69;3515528;28;20044;-77
2021/06/24 03:32:11;;;;;;;31.80;15.85;;;;;;;28.96;51.63;100199.69;3525413;28;20039;-74
2021/06/24 03:33:52;;;;;;;31.40;15.32;;;;;;;28.98;51.31;100191.97;3508342;28;20066;-75
2021/06/24 03:35:33;;;;;;;29.15;15.02;;;;;;;28.98;51.23;100194.72;3522955;28;20502;-76
2021/06/24 03:37:14;;;;;;;33.92;14.80;;;;;;;29.01;51.43;100185.06;3525266;28;20044;-76
2021/06/24 03:39:03;;;;;;;28.10;15.98;;;;;;;29.02;51.77;100193.00;3523309;28;20526;-77
2021/06/24 03:40:50;;;;;;;34.58;15.90;;;;;;;29.04;51.17;100179.81;3509067;28;20043;-78
2021/06/24 03:42:31;;;;;;;29.48;15.57;;;;;;;29.07;51.38;100187.44;3519938;28;20134;-78
2021/06/24 03:44:12;;;;;;;;;;;;;;;29.14;51.10;100189.75;3509235;28;20051;-78
2021/06/24 03:45:54;;;;;;;25.35;15.02;;;;;;;29.11;51.41;100185.69;3491583;28;20396;-77
2021/06/24 03:47:34;;;;;;;23.27;13.35;;;;;;;29.13;51.32;100186.22;3516719;28;20100;-77
2021/06/24 03:49:15;;;;;;;26.92;14.77;;;;;;;29.18;51.38;100195.47;3522212;28;20058;-76
2021/06/24 03:50:56;;;;;;;31.65;15.25;;;;;;;29.22;51.34;100188.22;3507910;28;20055;-79
2021/06/24 03:52:38;;;;;;;33.30;15.27;;;;;;;29.29;51.17;100196.88;3505049;28;20047;-73
2021/06/24 03:54:18;;;;;;;32.92;14.05;;;;;;;29.29;50.66;100183.16;3505245;28;20292;-75
2021/06/24 03:56:00;;;;;;;28.02;13.40;;;;;;;29.38;50.91;100197.78;3519247;28;20567;-73
2021/06/24 03:57:48;;;;;;;27.80;14.10;;;;;;;29.38;50.54;100184.06;3524575;28;20049;-74
2021/06/24 03:59:36;;;;;;;33.08;15.23;;;;;;;29.47;50.89;100195.91;3525127;28;20043;-73
2021/06/24 04:01:18;;;;;;;;;;;;;;;29.52;50.93;100195.81;3524928;28;20051;-74
2021/06/24 04:02:58;;;;;;;28.98;13.93;;;;;;;29.47;50.53;100189.63;3510123;28;19926;-74
2021/06/24 04:04:49;;;;;;;27.95;15.45;;;;;;;29.43;51.02;100172.13;3521211;28;20512;-74
2021/06/24 04:06:31;;;;;;;26.13;13.25;;;;;;;29.51;50.63;100187.91;3521756;28;20070;-73
2021/06/24 04:08:13;;;;;;;27.77;13.77;;;;;;;29.55;50.36;100189.69;3525486;28;20517;-74
2021/06/24 04:09:54;;;;;;;39.77;14.27;;;;;;;29.60;50.55;100188.78;3524574;28;20078;-74
2021/06/24 04:11:35;;;;;;;29.27;14.00;;;;;;;29.63;50.27;100181.84;3521904;28;20290;-74
2021/06/24 04:13:26;;;;;;;22.23;13.05;;;;;;;29.69;50.22;100175.97;3525594;28;20039;-74
2021/06/24 04:15:09;;;;;;;27.88;14.10;;;;;;;29.73;50.19;100179.69;3524286;28;20035;-73
2021/06/24 04:16:52;;;;;;;29.63;14.30;;;;;;;29.77;50.21;100179.91;3525090;28;20557;-73
2021/06/24 04:18:34;;;;;;;33.22;14.70;;;;;;;29.79;50.46;100183.13;3523855;28;20055;-73
2021/06/24 04:20:15;;;;;;;27.45;12.82;;;;;;;29.80;50.27;100176.53;3525017;28;20035;-73
2021/06/24 04:21:58;;;;;;;23.08;12.30;;;;;;;29.85;49.98;100176.41;3524215;28;20035;-74
2021/06/24 04:23:51;;;;;;;29.05;15.25;;;;;;;29.88;50.10;100178.53;3509701;28;20048;-74
2021/06/24 04:25:33;;;;;;;31.67;14.00;;;;;;;29.90;50.09;100172.72;3524134;28;20046;-73
2021/06/24 04:27:16;;;;;;;22.85;14.02;;;;;;;29.89;49.94;100169.16;3526542;28;20050;-73
2021/06/24 04:28:58;;;;;;;22.88;12.93;;;;;;;29.94;49.96;100169.03;3525375;28;20042;-75
2021/06/24 04:30:39;;;;;;;20.48;13.73;;;;;;;29.92;49.89;100157.56;3524069;28;20051;-74
2021/06/24 04:32:19;;;;;;;36.55;12.55;;;;;;;29.99;49.47;100174.38;3523850;28;20137;-73
2021/06/24 04:34:01;;;;;;;25.40;12.50;;;;;;;30.03;49.31;100169.09;3524385;28;20130;-74
2021/06/24 04:35:51;;;;;;;26.73;12.57;;;;;;;30.10;49.07;100176.88;3511393;28;20047;-75
2021/06/24 04:37:35;;;;;;;21.05;11.48;;;;;;;30.16;49.20;100172.91;3526702;28;20040;-74
2021/06/24 04:39:16;;;;;;;22.77;11.23;;;;;;;30.19;48.79;100169.53;3529104;28;20967;-74
2021/06/24 04:40:57;;;;;;;24.00;12.27;;;;;;;30.25;48.58;100173.78;3528749;28;20050;-74
2021/06/24 04:42:44;;;;;;;22.73;11.18;;;;;;;30.29;48.33;100174.78;3527463;28;20130;-71
2021/06/24 04:44:27;;;;;;;27.98;11.85;;;;;;;30.34;48.34;100174.66;3524037;28;20127;-74
2021/06/24 04:46:09;;;;;;;28.63;12.95;;;;;;;30.36;48.72;100180.66;3527436;28;20101;-73
2021/06/24 04:47:51;;;;;;;37.83;12.45;;;;;;;30.39;48.29;100177.28;3514849;28;20595;-74
2021/06/24 04:49:32;;;;;;;29.95;12.65;;;;;;;30.41;48.13;100177.78;3491196;28;20050;-74
2021/06/24 04:51:23;;;;;;;20.07;10.57;;;;;;;30.46;47.78;100189.75;3507210;28;20072;-73
2021/06/24 04:53:04;;;;;;;29.30;11.88;;;;;;;30.49;47.65;100186.38;3511063;28;20286;-75
2021/06/24 04:55:10;;;;;;;24.55;11.52;;;;;;;30.52;47.55;100178.31;3510254;28;20040;-74
2021/06/24 04:56:54;;;;;;;23.70;12.02;;;;;;;30.61;47.44;100175.59;3507535;28;20040;-73
2021/06/24 04:58:48;;;;;;;30.05;9.63;;;;;;;30.64;47.03;100181.28;3508694;28;20139;-74
2021/06/24 05:00:57;;;;;;;15.05;9.93;;;;;;;30.71;46.68;100174.50;3494646;28;20067;-73
2021/06/24 05:02:56;;;;;;;15.05;9.25;;;;;;;30.75;46.71;100170.00;3510961;28;20486;-74
2021/06/24 05:04:55;;;;;;;19.98;9.65;;;;;;;30.82;46.79;100179.44;3510009;28;20518;-73
2021/06/24 05:06:35;;;;;;;22.10;11.73;;;;;;;30.88;46.70;100176.53;3510651;28;20071;-74
2021/06/24 05:08:18;;;;;;;20.25;10.95;;;;;;;30.92;46.53;100175.56;3496169;28;20619;-74
2021/06/24 05:09:59;;;;;;;20.75;10.13;;;;;;;30.97;46.66;100174.63;3508035;28;20075;-73
2021/06/24 05:11:39;;;;;;;24.30;11.97;;;;;;;31.01;46.50;100175.63;3495737;28;20037;-74
2021/06/24 05:13:20;;;;;;;27.00;11.83;;;;;;;31.03;46.39;100176.09;3507807;28;20491;-75
2021/06/24 05:15:01;;;;;;;17.70;11.00;;;;;;;31.05;46.24;100166.38;3509570;28;20586;-73
2021/06/24 05:16:42;;;;;;;;;;;;;;;31.11;46.37;100169.81;3510850;28;20040;-77
2021/06/24 05:18:23;;;;;;;18.05;10.52;;;;;;;31.11;46.21;100164.31;3495536;28;19977;-74
2021/06/24 05:20:06;;;;;;;21.08;11.05;;;;;;;31.14;46.23;100165.59;3507458;28;20079;-75
2021/06/24 05:21:47;;;;;;;17.75;9.77;;;;;;;31.14;46.10;100166.41;3495707;28;20044;-76
2021/06/24 05:23:28;;;;;;;20.02;11.48;;;;;;;31.20;45.63;100164.31;3507849;28;20120;-75
2021/06/24 05:25:10;;;;;;;19.60;10.95;;;;;;;31.26;45.41;100165.78;3511117;28;20044;-74
2021/06/24 05:26:50;;;;;;;23.52;9.95;;;;;;;31.33;45.51;100170.81;3509856;28;20086;-74
2021/06/24 05:28:31;;;;;;;17.27;9.85;;;;;;;31.39;45.42;100166.78;3506873;28;20040;-76
2021/06/24 05:30:12;;;;;;;21.50;11.25;;;;;;;31.45;45.39;100165.53;3510557;28;20467;-75
2021/06/24 05:31:53;;;;;;;16.95;9.45;;;;;;;31.48;44.71;100171.19;3510885;28;20040;-75
2021/06/24 05:33:34;;;;;;;29.00;11.18;;;;;;;31.56;44.75;100174.28;3510889;28;20126;-75
2021/06/24 05:35:15;;;;;;;17.23;8.70;;;;;;;31.63;44.63;100178.16;3509659;28;20411;-75
2021/06/24 05:36:57;;;;;;;16.73;8.27;;;;;;;31.69;44.48;100160.31;3510369;28;20441;-75
2021/06/24 05:38:37;;;;;;;;;;;;;;;31.79;44.47;100163.91;3511038;28;20571;-75
2021/06/24 05:40:18;;;;;;;21.55;9.18;;;;;;;31.83;44.05;100164.84;3509759;28;20005;-76
2021/06/24 05:41:59;;;;;;;28.15;9.48;;;;;;;31.88;43.78;100170.19;3510024;28;20048;-76
2021/06/24 05:43:41;;;;;;;30.05;9.50;;;;;;;31.92;43.79;100162.91;3510427;28;20048;-75
2021/06/24 05:45:31;;;;;;;30.98;9.07;;;;;;;31.98;42.92;100161.63;3510306;28;20490;-75
2021/06/24 05:47:12;;;;;;;49.20;11.07;;;;;;;32.03;42.78;100163.41;3509235;28;20039;-76
2021/06/24 05:48:53;;;;;;;54.10;10.10;;;;;;;32.08;42.66;100157.72;3506504;28;20070;-76
2021/06/24 05:50:34;;;;;;;29.63;9.50;;;;;;;32.15;42.22;100169.88;3510142;28;20131;-75
2021/06/24 05:52:15;;;;;;;33.20;8.10;;;;;;;32.23;42.34;100156.41;3510687;28;20127;-75
2021/06/24 05:53:55;;;;;;;28.73;8.07;;;;;;;32.30;42.16;100159.47;3510295;28;20036;-76
2021/06/24 05:55:52;;;;;;;28.25;7.93;;;;;;;32.36;41.98;100155.38;3507261;28;20558;-75
2021/06/24 05:57:33;;;;;;;23.80;7.95;;;;;;;32.43;41.52;100158.44;3511100;28;20135;-75
2021/06/24 05:59:14;;;;;;;12.80;6.32;;;;;;;32.47;41.17;100153.88;3515321;28;20502;-74
2021/06/24 06:00:57;;;;;;;17.33;6.03;;;;;;;32.51;40.47;100157.63;3517117;28;20048;-73
2021/06/24 06:02:38;;;;;;;8.82;5.00;;;;;;;32.54;40.59;100154.19;3518182;28;20073;-75
2021/06/24 06:04:19;;;;;;;21.25;7.18;;;;;;;32.55;40.44;100141.19;3518345;28;20522;-75
2021/06/24 06:05:59;;;;;;;19.98;7.35;;;;;;;32.66;40.59;100147.16;3515543;28;20040;-75
2021/06/24 06:07:40;;;;;;;23.10;5.90;;;;;;;32.71;40.36;100153.31;3514573;28;20521;-75
2021/06/24 06:09:21;;;;;;;20.67;5.82;;;;;;;32.77;40.07;100151.19;3513468;28;20055;-75
2021/06/24 06:11:02;;;;;;;16.45;6.18;;;;;;;32.80;39.82;100150.50;3509963;28;20048;-76
2021/06/24 06:12:43;;;;;;;18.17;5.30;;;;;;;32.88;39.77;100160.69;3510142;28;20443;-75
2021/06/24 06:14:24;;;;;;;11.85;5.25;;;;;;;32.94;39.71;100155.78;3508965;28;20506;-76
2021/06/24 06:16:05;;;;;;;18.55;5.30;;;;;;;32.97;39.33;100155.94;3509454;28;20035;-76
2021/06/24 06:17:46;;;;;;;16.75;4.50;;;;;;;33.05;39.39;100159.03;3509689;28;20094;-75
2021/06/24 06:19:27;;;;;;;11.45;5.05;;;;;;;33.10;39.04;100156.88;3510211;28;20039;-74
2021/06/24 06:21:08;;;;;;;13.98;5.13;;;;;;;33.15;39.13;100147.59;3508722;28;20075;-75
2021/06/24 06:22:49;;;;;;;13.45;4.93;;;;;;;33.18;38.93;100147.72;3509951;28;20060;-75
2021/06/24 06:24:30;;;;;;;16.48;5.05;;;;;;;33.25;38.81;100155.47;3509768;28;20032;-77
2021/06/24 06:26:10;;;;;;;13.77;4.32;;;;;;;33.34;38.53;100158.97;3509968;28;20531;-76
2021/06/24 06:27:51;;;;;;;9.23;4.68;;;;;;;33.36;38.53;100153.94;3510154;28;20119;-75
2021/06/24 06:29:32;;;;;;;15.18;5.07;;;;;;;33.38;38.05;100150.81;3509497;28;20518;-75
2021/06/24 06:31:13;;;;;;;12.63;4.22;;;;;;;33.47;38.08;100151.56;3509869;28;20079;-76
2021/06/24 06:32:54;;;;;;;9.85;4.80;;;;;;;33.57;38.01;100159.50;3508817;28;20047;-77
2021/06/24 06:34:35;;;;;;;10.98;4.60;;;;;;;33.70;37.95;100157.59;3505925;28;20392;-76
2021/06/24 06:36:16;;;;;;;16.70;5.28;;;;;;;33.84;37.89;100151.75;3506109;28;20047;-76
2021/06/24 06:37:57;;;;;;;14.88;4.35;;;;;;;34.02;37.96;100149.63;3508658;28;20044;-79
2021/06/24 06:39:38;;;;;;;21.60;5.53;;;;;;;34.15;37.53;100150.50;3509953;28;20096;-76
2021/06/24 06:41:18;;;;;;;10.95;4.80;;;;;;;34.30;37.26;100150.66;3509772;28;20043;-76
2021/06/24 06:43:00;;;;;;;13.35;4.55;;;;;;;34.45;37.03;100149.19;3523039;28;20081;-77
2021/06/24 06:44:40;;;;;;;18.45;5.30;;;;;;;34.60;36.79;100155.25;3512509;28;20131;-76
2021/06/24 06:46:23;;;;;;;14.27;5.65;;;;;;;34.69;36.24;100147.59;3494775;28;20040;-76
2021/06/24 06:48:05;;;;;;;11.73;5.03;;;;;;;34.73;35.83;100143.81;3507032;28;20094;-76
2021/06/24 06:49:45;;;;;;;12.68;5.25;;;;;;;34.87;35.91;100145.41;3508851;28;20040;-76
2021/06/24 06:51:26;;;;;;;9.00;5.13;;;;;;;34.95;35.95;100144.47;3509647;28;20604;-75
2021/06/24 06:53:07;;;;;;;12.95;4.97;;;;;;;35.08;35.89;100157.19;3508822;28;20067;-76
2021/06/24 06:54:48;;;;;;;9.57;4.85;;;;;;;35.23;35.45;100149.31;3492232;28;20084;-76
2021/06/24 06:56:29;;;;;;;16.73;5.05;;;;;;;35.33;35.27;100152.41;3506711;28;20490;-77
2021/06/24 06:58:10;;;;;;;12.30;5.50;;;;;;;35.44;35.43;100147.19;3509696;28;20127;-76
2021/06/24 06:59:50;;;;;;;9.18;5.10;;;;;;;35.57;35.34;100150.72;3509735;28;20039;-75
2021/06/24 07:01:31;;;;;;;15.95;5.97;;;;;;;35.66;34.74;100162.50;3509666;28;20040;-76
2021/06/24 07:03:14;;;;;;;12.18;4.75;;;;;;;35.72;34.44;100151.97;3509846;28;20048;-76
2021/06/24 07:04:55;;;;;;;18.13;5.82;;;;;;;35.80;34.18;100156.56;3511339;28;20127;-76
2021/06/24 07:06:36;;;;;;;12.15;5.28;;;;;;;35.88;34.06;100152.00;3511031;28;20470;-76
2021/06/24 07:08:16;;;;;;;12.93;5.15;;;;;;;35.96;33.82;100153.81;3512192;28;20087;-75
2021/06/24 07:09:57;;;;;;;11.15;5.82;;;;;;;36.04;33.68;100150.91;3512161;28;20047;-76
2021/06/24 07:11:38;;;;;;;18.35;5.63;;;;;;;36.11;33.25;100152.28;3512308;28;20044;-77
2021/06/24 07:13:19;;;;;;;11.77;5.32;;;;;;;36.09;33.11;100143.50;3512380;28;20060;-77
2021/06/24 07:15:00;;;;;;;14.88;5.55;;;;;;;36.09;32.94;100138.78;3511046;28;20044;-76
2021/06/24 07:16:44;;;;;;;15.25;4.78;;;;;;;36.13;33.01;100156.31;3511876;28;20050;-76
2021/06/24 07:18:28;;;;;;;12.88;5.40;;;;;;;36.20;32.79;100162.06;3512077;28;20052;-76
2021/06/24 07:20:10;;;;;;;14.70;5.43;;;;;;;36.26;33.03;100154.25;3512072;28;20506;-76
2021/06/24 07:21:51;;;;;;;9.30;5.15;;;;;;;36.22;32.63;100137.53;3510814;28;20040;-77
2021/06/24 07:23:32;;;;;;;15.98;5.88;;;;;;;36.36;33.29;100148.19;3508346;28;20036;-75
2021/06/24 07:25:18;;;;;;;14.82;5.57;;;;;;;36.42;33.16;100143.97;3497309;28;20055;-76
2021/06/24 07:26:59;;;;;;;14.85;5.40;;;;;;;36.49;32.56;100150.88;3510401;28;20036;-75
2021/06/24 07:28:40;;;;;;;17.35;5.80;;;;;;;36.49;32.42;100142.53;3512670;28;20044;-77
2021/06/24 07:30:21;;;;;;;11.52;5.00;;;;;;;36.60;32.78;100138.88;3511955;28;20074;-76
2021/06/24 07:32:02;;;;;;;12.48;5.65;;;;;;;36.68;32.40;100142.63;3512176;28;20044;-76
2021/06/24 07:33:43;;;;;;;;;;;;;;;36.79;32.61;100145.66;3511922;28;20039;-76
2021/06/24 07:35:24;;;;;;;13.47;5.80;;;;;;;36.80;32.82;100128.66;3494215;28;19912;-75
2021/06/24 07:37:05;;;;;;;19.15;5.85;;;;;;;36.90;32.14;100125.31;3505047;28;20082;-76
2021/06/24 07:38:46;;;;;;;18.52;5.78;;;;;;;37.07;32.31;100135.25;3511586;28;20039;-76
2021/06/24 07:40:28;;;;;;;19.17;5.65;;;;;;;37.20;32.29;100138.72;3511947;28;20081;-76
2021/06/24 07:42:09;;;;;;;16.05;6.32;;;;;;;37.28;32.32;100136.88;3511946;28;20498;-76
2021/06/24 07:43:53;;;;;;;17.42;6.20;;;;;;;37.37;32.15;100125.56;3496868;28;20087;-76
2021/06/24 07:45:34;;;;;;;20.08;6.70;;;;;;;37.50;32.05;100119.50;3505886;28;20503;-78
2021/06/24 07:47:18;;;;;;;19.67;5.50;;;;;;;37.50;31.52;100116.72;3494167;28;20043;-76
2021/06/24 07:48:59;;;;;;;15.80;6.10;;;;;;;37.61;31.64;100119.72;3491420;28;20117;-76
2021/06/24 07:50:40;;;;;;;17.60;5.55;;;;;;;37.65;31.24;100119.78;3505599;28;20122;-76
2021/06/24 07:52:21;;;;;;;14.60;5.75;;;;;;;37.72;31.19;100131.88;3511611;28;20587;-76
2021/06/24 07:54:02;;;;;;;12.85;5.60;;;;;;;37.75;30.83;100120.00;3511602;28;20069;-76